sensor_id;sensor_type;location;lat;lon;timestamp;pressure;altitude;pressure_sealevel;temperature;humidity
2875;BME280;1445;52.600;13.328;2023-07-13T00:02:23;100622.56;;;19.53;nan
2875;BME280;1445;52.600;13.328;2023-07-13T00:04:48;100613.88;;;19.58;nan
2875;BME280;1445;52.600;13.328;2023-07-13T00:07:14;100614.66;;;19.39;nan
2875;BME280;1445;52.600;13.328;2023-07-13T00:09:40;100611.28;;;19.49;nan
2875;BME280;1445;52.600;13.328;2023-07-13T00:12:22;100604.97;;;19.52;nan
2875;BME280;1445;52.600;13.328;2023-07-13T00:14:47;100603.44;;;19.55;nan
2875;BME280;1445;52.600;13.328;2023-07-13T00:17:14;100606.31;;;19.59;nan
2875;BME280;1445;52.600;13.328;2023-07-13T00:19:39;100603.31;;;19.67;nan
2875;BME280;1445;52.600;13.328;2023-07-13T00:22:05;100607.84;;;19.56;nan
2875;BME280;1445;52.600;13.328;2023-07-13T00:24:30;100611.38;;;19.53;nan
2875;BME280;1445;52.600;13.328;2023-07-13T00:26:56;100616.31;;;19.24;nan
2875;BME280;1445;52.600;13.328;2023-07-13T00:29:21;100618.69;;;19.06;nan
2875;BME280;1445;52.600;13.328;2023-07-13T00:31:47;100621.03;;;19.04;nan
2875;BME280;1445;52.600;13.328;2023-07-13T00:34:12;100624.91;;;19.00;nan
2875;BME280;1445;52.600;13.328;2023-07-13T00:36:37;100629.25;;;18.81;nan
2875;BME280;1445;52.600;13.328;2023-07-13T00:39:03;100608.69;;;18.74;nan
2875;BME280;1445;52.600;13.328;2023-07-13T00:41:30;100620.69;;;18.74;nan
2875;BME280;1445;52.600;13.328;2023-07-13T00:43:55;100617.31;;;18.69;nan
2875;BME280;1445;52.600;13.328;2023-07-13T00:46:24;100624.28;;;18.75;nan
2875;BME280;1445;52.600;13.328;2023-07-13T00:48:51;100637.91;;;18.48;nan
2875;BME280;1445;52.600;13.328;2023-07-13T00:51:21;100624.25;;;18.59;nan
2875;BME280;1445;52.600;13.328;2023-07-13T00:53:50;100619.56;;;18.47;nan
2875;BME280;1445;52.600;13.328;2023-07-13T00:56:16;100626.41;;;18.50;nan
2875;BME280;1445;52.600;13.328;2023-07-13T00:58:41;100620.38;;;18.48;nan
2875;BME280;1445;52.600;13.328;2023-07-13T01:01:07;100615.53;;;18.60;nan
2875;BME280;1445;52.600;13.328;2023-07-13T01:03:34;100619.66;;;18.67;nan
2875;BME280;1445;52.600;13.328;2023-07-13T01:06:00;100615.47;;;18.73;nan
2875;BME280;1445;52.600;13.328;2023-07-13T01:08:25;100614.63;;;18.88;nan
2875;BME280;1445;52.600;13.328;2023-07-13T01:10:56;100623.28;;;18.83;nan
2875;BME280;1445;52.600;13.328;2023-07-13T01:13:21;100632.06;;;18.81;nan
2875;BME280;1445;52.600;13.328;2023-07-13T01:15:49;100635.31;;;18.40;nan
2875;BME280;1445;52.600;13.328;2023-07-13T01:18:21;100638.38;;;18.50;nan
2875;BME280;1445;52.600;13.328;2023-07-13T01:21:01;100628.13;;;18.54;nan
2875;BME280;1445;52.600;13.328;2023-07-13T01:23:27;100641.53;;;18.49;nan
2875;BME280;1445;52.600;13.328;2023-07-13T01:25:55;100633.13;;;18.33;nan
2875;BME280;1445;52.600;13.328;2023-07-13T01:28:21;100641.78;;;18.44;nan
2875;BME280;1445;52.600;13.328;2023-07-13T01:30:46;100641.50;;;18.33;nan
2875;BME280;1445;52.600;13.328;2023-07-13T01:33:17;100639.72;;;18.41;nan
2875;BME280;1445;52.600;13.328;2023-07-13T01:35:44;100648.00;;;18.53;nan
2875;BME280;1445;52.600;13.328;2023-07-13T01:38:11;100641.00;;;18.59;nan
2875;BME280;1445;52.600;13.328;2023-07-13T01:40:38;100633.59;;;18.51;nan
2875;BME280;1445;52.600;13.328;2023-07-13T01:43:03;100651.50;;;18.34;nan
2875;BME280;1445;52.600;13.328;2023-07-13T01:45:29;100649.16;;;18.36;nan
2875;BME280;1445;52.600;13.328;2023-07-13T01:47:54;100643.91;;;18.19;nan
2875;BME280;1445;52.600;13.328;2023-07-13T01:50:20;100638.72;;;18.05;nan
2875;BME280;1445;52.600;13.328;2023-07-13T01:52:46;100647.09;;;18.05;nan
2875;BME280;1445;52.600;13.328;2023-07-13T01:55:11;100637.63;;;18.22;nan
2875;BME280;1445;52.600;13.328;2023-07-13T01:57:37;100637.44;;;18.30;nan
2875;BME280;1445;52.600;13.328;2023-07-13T02:00:06;100632.31;;;18.32;nan
2875;BME280;1445;52.600;13.328;2023-07-13T02:02:32;100629.16;;;18.18;nan
2875;BME280;1445;52.600;13.328;2023-07-13T02:04:58;100637.38;;;18.15;nan
2875;BME280;1445;52.600;13.328;2023-07-13T02:07:23;100642.75;;;18.07;nan
2875;BME280;1445;52.600;13.328;2023-07-13T02:09:49;100640.25;;;18.02;nan
2875;BME280;1445;52.600;13.328;2023-07-13T02:12:14;100642.47;;;17.97;nan
2875;BME280;1445;52.600;13.328;2023-07-13T02:14:39;100639.44;;;18.02;nan
2875;BME280;1445;52.600;13.328;2023-07-13T02:17:05;100646.09;;;17.97;nan
2875;BME280;1445;52.600;13.328;2023-07-13T02:19:31;100653.59;;;17.97;nan
2875;BME280;1445;52.600;13.328;2023-07-13T02:21:57;100652.84;;;17.84;nan
2875;BME280;1445;52.600;13.328;2023-07-13T02:24:22;100655.31;;;17.73;nan
2875;BME280;1445;52.600;13.328;2023-07-13T02:26:48;100645.91;;;17.78;nan
2875;BME280;1445;52.600;13.328;2023-07-13T02:29:13;100664.47;;;17.74;nan
2875;BME280;1445;52.600;13.328;2023-07-13T02:31:39;100666.13;;;17.62;nan
2875;BME280;1445;52.600;13.328;2023-07-13T02:34:04;100661.47;;;17.67;nan
2875;BME280;1445;52.600;13.328;2023-07-13T02:36:30;100646.25;;;17.76;nan
2875;BME280;1445;52.600;13.328;2023-07-13T02:39:00;100654.47;;;17.85;nan
2875;BME280;1445;52.600;13.328;2023-07-13T02:41:26;100656.56;;;17.88;nan
2875;BME280;1445;52.600;13.328;2023-07-13T02:43:52;100660.31;;;17.80;nan
2875;BME280;1445;52.600;13.328;2023-07-13T02:46:17;100647.97;;;17.69;nan
2875;BME280;1445;52.600;13.328;2023-07-13T02:48:45;100650.22;;;17.63;nan
2875;BME280;1445;52.600;13.328;2023-07-13T02:51:10;100661.03;;;17.52;nan
2875;BME280;1445;52.600;13.328;2023-07-13T02:53:36;100657.22;;;17.45;nan
2875;BME280;1445;52.600;13.328;2023-07-13T02:56:02;100650.56;;;17.37;nan
2875;BME280;1445;52.600;13.328;2023-07-13T02:58:28;100658.00;;;17.33;nan
2875;BME280;1445;52.600;13.328;2023-07-13T03:00:55;100659.63;;;17.46;nan
2875;BME280;1445;52.600;13.328;2023-07-13T03:03:20;100669.06;;;17.41;nan
2875;BME280;1445;52.600;13.328;2023-07-13T03:05:46;100686.09;;;17.40;nan
2875;BME280;1445;52.600;13.328;2023-07-13T03:08:15;100686.00;;;17.36;nan
2875;BME280;1445;52.600;13.328;2023-07-13T03:10:40;100691.56;;;17.36;nan
2875;BME280;1445;52.600;13.328;2023-07-13T03:13:06;100680.66;;;17.19;nan
2875;BME280;1445;52.600;13.328;2023-07-13T03:15:31;100689.50;;;17.21;nan
2875;BME280;1445;52.600;13.328;2023-07-13T03:17:57;100691.66;;;16.91;nan
2875;BME280;1445;52.600;13.328;2023-07-13T03:20:22;100701.06;;;16.99;nan
2875;BME280;1445;52.600;13.328;2023-07-13T03:22:48;100706.75;;;16.90;nan
2875;BME280;1445;52.600;13.328;2023-07-13T03:25:13;100709.09;;;16.67;nan
2875;BME280;1445;52.600;13.328;2023-07-13T03:27:39;100709.16;;;16.79;nan
2875;BME280;1445;52.600;13.328;2023-07-13T03:30:05;100708.47;;;16.82;nan
2875;BME280;1445;52.600;13.328;2023-07-13T03:32:31;100712.00;;;16.70;nan
2875;BME280;1445;52.600;13.328;2023-07-13T03:34:57;100713.31;;;16.40;nan
2875;BME280;1445;52.600;13.328;2023-07-13T03:37:23;100724.47;;;16.52;nan
2875;BME280;1445;52.600;13.328;2023-07-13T03:39:49;100717.66;;;16.62;nan
2875;BME280;1445;52.600;13.328;2023-07-13T03:42:14;100718.34;;;16.59;nan
2875;BME280;1445;52.600;13.328;2023-07-13T03:44:42;100724.03;;;16.62;nan
2875;BME280;1445;52.600;13.328;2023-07-13T03:47:11;100722.31;;;16.70;nan
2875;BME280;1445;52.600;13.328;2023-07-13T03:49:36;100722.00;;;16.72;nan
2875;BME280;1445;52.600;13.328;2023-07-13T03:52:02;100729.91;;;16.49;nan
2875;BME280;1445;52.600;13.328;2023-07-13T03:54:28;100728.38;;;16.72;nan
2875;BME280;1445;52.600;13.328;2023-07-13T03:56:53;100729.38;;;16.88;nan
2875;BME280;1445;52.600;13.328;2023-07-13T03:59:18;100734.47;;;16.99;nan
2875;BME280;1445;52.600;13.328;2023-07-13T04:01:44;100727.97;;;16.94;nan
2875;BME280;1445;52.600;13.328;2023-07-13T04:04:11;100728.00;;;16.74;nan
2875;BME280;1445;52.600;13.328;2023-07-13T04:06:36;100733.19;;;16.63;nan
2875;BME280;1445;52.600;13.328;2023-07-13T04:09:04;100743.06;;;16.60;nan
2875;BME280;1445;52.600;13.328;2023-07-13T04:11:33;100737.28;;;16.65;nan
2875;BME280;1445;52.600;13.328;2023-07-13T04:13:59;100735.91;;;16.72;nan
2875;BME280;1445;52.600;13.328;2023-07-13T04:16:25;100729.94;;;16.94;nan
2875;BME280;1445;52.600;13.328;2023-07-13T04:18:51;100721.16;;;16.92;nan
2875;BME280;1445;52.600;13.328;2023-07-13T04:21:22;100730.63;;;16.91;nan
2875;BME280;1445;52.600;13.328;2023-07-13T04:23:47;100728.69;;;17.04;nan
2875;BME280;1445;52.600;13.328;2023-07-13T04:26:13;100726.72;;;16.92;nan
2875;BME280;1445;52.600;13.328;2023-07-13T04:28:38;100730.00;;;17.06;nan
2875;BME280;1445;52.600;13.328;2023-07-13T04:31:04;100730.13;;;17.10;nan
2875;BME280;1445;52.600;13.328;2023-07-13T04:33:30;100729.28;;;17.34;nan
2875;BME280;1445;52.600;13.328;2023-07-13T04:35:55;100738.81;;;17.33;nan
2875;BME280;1445;52.600;13.328;2023-07-13T04:38:26;100743.00;;;17.39;nan
2875;BME280;1445;52.600;13.328;2023-07-13T04:40:59;100742.06;;;17.23;nan
2875;BME280;1445;52.600;13.328;2023-07-13T04:43:25;100748.56;;;17.27;nan
2875;BME280;1445;52.600;13.328;2023-07-13T04:45:51;100751.72;;;17.13;nan
2875;BME280;1445;52.600;13.328;2023-07-13T04:48:17;100753.91;;;17.20;nan
2875;BME280;1445;52.600;13.328;2023-07-13T04:50:43;100762.84;;;17.25;nan
2875;BME280;1445;52.600;13.328;2023-07-13T04:53:09;100766.69;;;17.33;nan
2875;BME280;1445;52.600;13.328;2023-07-13T04:55:35;100766.22;;;17.43;nan
2875;BME280;1445;52.600;13.328;2023-07-13T04:58:01;100750.78;;;17.46;nan
2875;BME280;1445;52.600;13.328;2023-07-13T05:00:27;100755.69;;;17.49;nan
2875;BME280;1445;52.600;13.328;2023-07-13T05:02:54;100755.09;;;17.43;nan
2875;BME280;1445;52.600;13.328;2023-07-13T05:05:20;100763.13;;;17.45;nan
2875;BME280;1445;52.600;13.328;2023-07-13T05:07:45;100759.16;;;17.58;nan
2875;BME280;1445;52.600;13.328;2023-07-13T05:10:11;100762.50;;;17.51;nan
2875;BME280;1445;52.600;13.328;2023-07-13T05:12:36;100756.25;;;17.67;nan
2875;BME280;1445;52.600;13.328;2023-07-13T05:15:03;100754.88;;;17.73;nan
2875;BME280;1445;52.600;13.328;2023-07-13T05:17:28;100759.41;;;17.77;nan
2875;BME280;1445;52.600;13.328;2023-07-13T05:19:54;100748.38;;;17.81;nan
2875;BME280;1445;52.600;13.328;2023-07-13T05:22:19;100754.59;;;18.02;nan
2875;BME280;1445;52.600;13.328;2023-07-13T05:24:44;100761.78;;;18.16;nan
2875;BME280;1445;52.600;13.328;2023-07-13T05:27:10;100753.66;;;18.10;nan
2875;BME280;1445;52.600;13.328;2023-07-13T05:29:36;100762.13;;;18.14;nan
2875;BME280;1445;52.600;13.328;2023-07-13T05:32:01;100761.91;;;18.07;nan
2875;BME280;1445;52.600;13.328;2023-07-13T05:34:27;100760.75;;;18.08;nan
2875;BME280;1445;52.600;13.328;2023-07-13T05:36:52;100766.25;;;18.04;nan
2875;BME280;1445;52.600;13.328;2023-07-13T05:39:18;100768.41;;;18.11;nan
2875;BME280;1445;52.600;13.328;2023-07-13T05:41:44;100768.28;;;18.20;nan
2875;BME280;1445;52.600;13.328;2023-07-13T05:44:09;100769.72;;;18.42;nan
2875;BME280;1445;52.600;13.328;2023-07-13T05:46:35;100774.38;;;18.50;nan
2875;BME280;1445;52.600;13.328;2023-07-13T05:49:00;100765.81;;;18.58;nan
2875;BME280;1445;52.600;13.328;2023-07-13T05:51:26;100767.09;;;18.61;nan
2875;BME280;1445;52.600;13.328;2023-07-13T05:53:51;100766.41;;;18.64;nan
2875;BME280;1445;52.600;13.328;2023-07-13T05:56:17;100775.31;;;18.82;nan
2875;BME280;1445;52.600;13.328;2023-07-13T05:58:42;100766.03;;;18.94;nan
2875;BME280;1445;52.600;13.328;2023-07-13T06:01:12;100767.94;;;19.05;nan
2875;BME280;1445;52.600;13.328;2023-07-13T06:03:37;100764.88;;;19.11;nan
2875;BME280;1445;52.600;13.328;2023-07-13T06:06:04;100767.88;;;19.18;nan
2875;BME280;1445;52.600;13.328;2023-07-13T06:08:30;100756.59;;;19.30;nan
2875;BME280;1445;52.600;13.328;2023-07-13T06:11:02;100749.66;;;19.55;nan
2875;BME280;1445;52.600;13.328;2023-07-13T06:13:28;100744.69;;;19.81;nan
2875;BME280;1445;52.600;13.328;2023-07-13T06:15:53;100747.13;;;19.66;nan
2875;BME280;1445;52.600;13.328;2023-07-13T06:18:18;100739.72;;;19.74;nan
2875;BME280;1445;52.600;13.328;2023-07-13T06:20:44;100732.13;;;19.74;nan
2875;BME280;1445;52.600;13.328;2023-07-13T06:23:09;100750.91;;;19.74;nan
2875;BME280;1445;52.600;13.328;2023-07-13T06:25:34;100752.81;;;19.38;nan
2875;BME280;1445;52.600;13.328;2023-07-13T06:28:00;100748.56;;;19.44;nan
2875;BME280;1445;52.600;13.328;2023-07-13T06:30:25;100744.44;;;19.38;nan
2875;BME280;1445;52.600;13.328;2023-07-13T06:32:51;100745.56;;;19.69;nan
2875;BME280;1445;52.600;13.328;2023-07-13T06:35:17;100739.03;;;19.96;nan
2875;BME280;1445;52.600;13.328;2023-07-13T06:37:42;100745.59;;;20.04;nan
2875;BME280;1445;52.600;13.328;2023-07-13T06:40:08;100746.84;;;20.07;nan
2875;BME280;1445;52.600;13.328;2023-07-13T06:42:33;100746.53;;;19.92;nan
2875;BME280;1445;52.600;13.328;2023-07-13T06:44:59;100750.22;;;19.96;nan
2875;BME280;1445;52.600;13.328;2023-07-13T06:47:24;100746.50;;;20.08;nan
2875;BME280;1445;52.600;13.328;2023-07-13T06:49:49;100733.31;;;20.09;nan
2875;BME280;1445;52.600;13.328;2023-07-13T06:52:15;100728.00;;;20.03;nan
2875;BME280;1445;52.600;13.328;2023-07-13T06:54:40;100730.09;;;20.26;nan
2875;BME280;1445;52.600;13.328;2023-07-13T06:57:05;100724.31;;;20.38;nan
2875;BME280;1445;52.600;13.328;2023-07-13T06:59:31;100723.25;;;20.43;nan
2875;BME280;1445;52.600;13.328;2023-07-13T07:01:56;100720.34;;;20.78;nan
2875;BME280;1445;52.600;13.328;2023-07-13T07:04:22;100726.28;;;20.54;nan
2875;BME280;1445;52.600;13.328;2023-07-13T07:06:47;100723.16;;;20.78;nan
2875;BME280;1445;52.600;13.328;2023-07-13T07:09:13;100722.84;;;20.83;nan
2875;BME280;1445;52.600;13.328;2023-07-13T07:11:39;100722.47;;;21.08;nan
2875;BME280;1445;52.600;13.328;2023-07-13T07:14:04;100721.72;;;21.11;nan
2875;BME280;1445;52.600;13.328;2023-07-13T07:16:29;100718.53;;;21.12;nan
2875;BME280;1445;52.600;13.328;2023-07-13T07:18:55;100720.06;;;21.06;nan
2875;BME280;1445;52.600;13.328;2023-07-13T07:21:20;100729.31;;;21.33;nan
2875;BME280;1445;52.600;13.328;2023-07-13T07:23:48;100728.31;;;21.22;nan
2875;BME280;1445;52.600;13.328;2023-07-13T07:26:14;100731.44;;;21.17;nan
2875;BME280;1445;52.600;13.328;2023-07-13T07:28:39;100735.97;;;21.02;nan
2875;BME280;1445;52.600;13.328;2023-07-13T07:31:05;100733.56;;;21.24;nan
2875;BME280;1445;52.600;13.328;2023-07-13T07:33:32;100736.50;;;21.31;nan
2875;BME280;1445;52.600;13.328;2023-07-13T07:35:57;100749.53;;;21.42;nan
2875;BME280;1445;52.600;13.328;2023-07-13T07:38:23;100747.81;;;21.34;nan
2875;BME280;1445;52.600;13.328;2023-07-13T07:40:48;100748.72;;;21.42;nan
2875;BME280;1445;52.600;13.328;2023-07-13T07:43:13;100744.22;;;21.37;nan
2875;BME280;1445;52.600;13.328;2023-07-13T07:45:39;100739.41;;;21.61;nan
2875;BME280;1445;52.600;13.328;2023-07-13T07:48:06;100741.66;;;21.78;nan
2875;BME280;1445;52.600;13.328;2023-07-13T07:50:32;100740.19;;;21.61;nan
2875;BME280;1445;52.600;13.328;2023-07-13T07:52:57;100747.94;;;21.68;nan
2875;BME280;1445;52.600;13.328;2023-07-13T07:55:24;100747.66;;;21.77;nan
2875;BME280;1445;52.600;13.328;2023-07-13T07:57:51;100742.97;;;21.84;nan
2875;BME280;1445;52.600;13.328;2023-07-13T08:00:16;100749.28;;;21.78;nan
2875;BME280;1445;52.600;13.328;2023-07-13T08:02:43;100742.31;;;21.95;nan
2875;BME280;1445;52.600;13.328;2023-07-13T08:05:08;100742.91;;;22.37;nan
2875;BME280;1445;52.600;13.328;2023-07-13T08:07:35;100738.28;;;22.52;nan
2875;BME280;1445;52.600;13.328;2023-07-13T08:10:00;100746.19;;;22.43;nan
2875;BME280;1445;52.600;13.328;2023-07-13T08:12:26;100748.94;;;22.36;nan
2875;BME280;1445;52.600;13.328;2023-07-13T08:14:52;100744.44;;;22.31;nan
2875;BME280;1445;52.600;13.328;2023-07-13T08:17:20;100743.44;;;22.47;nan
2875;BME280;1445;52.600;13.328;2023-07-13T08:19:45;100748.03;;;22.62;nan
2875;BME280;1445;52.600;13.328;2023-07-13T08:22:11;100738.81;;;23.02;nan
2875;BME280;1445;52.600;13.328;2023-07-13T08:24:36;100737.44;;;23.26;nan
2875;BME280;1445;52.600;13.328;2023-07-13T08:27:02;100752.47;;;23.00;nan
2875;BME280;1445;52.600;13.328;2023-07-13T08:29:27;100752.59;;;23.11;nan
2875;BME280;1445;52.600;13.328;2023-07-13T08:31:52;100752.34;;;22.90;nan
2875;BME280;1445;52.600;13.328;2023-07-13T08:34:19;100763.25;;;22.95;nan
2875;BME280;1445;52.600;13.328;2023-07-13T08:36:45;100760.47;;;22.61;nan
2875;BME280;1445;52.600;13.328;2023-07-13T08:39:10;100766.59;;;22.36;nan
2875;BME280;1445;52.600;13.328;2023-07-13T08:41:36;100762.84;;;22.59;nan
2875;BME280;1445;52.600;13.328;2023-07-13T08:44:03;100755.88;;;22.49;nan
2875;BME280;1445;52.600;13.328;2023-07-13T08:46:38;100756.97;;;22.37;nan
2875;BME280;1445;52.600;13.328;2023-07-13T08:49:10;100763.81;;;22.74;nan
2875;BME280;1445;52.600;13.328;2023-07-13T08:51:53;100762.78;;;22.55;nan
2875;BME280;1445;52.600;13.328;2023-07-13T08:54:25;100756.81;;;22.27;nan
2875;BME280;1445;52.600;13.328;2023-07-13T08:56:53;100756.09;;;22.33;nan
2875;BME280;1445;52.600;13.328;2023-07-13T08:59:22;100760.97;;;22.36;nan
2875;BME280;1445;52.600;13.328;2023-07-13T09:04:19;100752.78;;;22.58;nan
2875;BME280;1445;52.600;13.328;2023-07-13T09:12:27;100757.97;;;23.30;nan
2875;BME280;1445;52.600;13.328;2023-07-13T09:14:57;100764.09;;;23.40;nan
2875;BME280;1445;52.600;13.328;2023-07-13T09:17:27;100759.97;;;22.89;nan
2875;BME280;1445;52.600;13.328;2023-07-13T09:20:01;100759.81;;;22.75;nan
2875;BME280;1445;52.600;13.328;2023-07-13T09:22:31;100753.72;;;23.03;nan
2875;BME280;1445;52.600;13.328;2023-07-13T09:27:53;100756.59;;;23.10;nan
2875;BME280;1445;52.600;13.328;2023-07-13T09:30:30;100757.53;;;23.25;nan
2875;BME280;1445;52.600;13.328;2023-07-13T09:32:57;100749.97;;;23.80;nan
2875;BME280;1445;52.600;13.328;2023-07-13T09:35:27;100753.53;;;23.74;nan
2875;BME280;1445;52.600;13.328;2023-07-13T09:37:58;100754.81;;;24.60;nan
2875;BME280;1445;52.600;13.328;2023-07-13T09:43:27;100745.91;;;24.44;nan
2875;BME280;1445;52.600;13.328;2023-07-13T09:45:54;100760.81;;;23.78;nan
2875;BME280;1445;52.600;13.328;2023-07-13T09:48:20;100755.72;;;23.47;nan
2875;BME280;1445;52.600;13.328;2023-07-13T09:50:46;100767.81;;;24.06;nan
2875;BME280;1445;52.600;13.328;2023-07-13T09:53:13;100749.44;;;24.30;nan
2875;BME280;1445;52.600;13.328;2023-07-13T09:55:41;100755.63;;;24.61;nan
2875;BME280;1445;52.600;13.328;2023-07-13T09:58:22;100746.38;;;24.64;nan
2875;BME280;1445;52.600;13.328;2023-07-13T10:01:00;100750.38;;;24.56;nan
2875;BME280;1445;52.600;13.328;2023-07-13T10:03:30;100748.53;;;24.08;nan
2875;BME280;1445;52.600;13.328;2023-07-13T10:06:14;100752.91;;;23.98;nan
2875;BME280;1445;52.600;13.328;2023-07-13T10:08:40;100756.25;;;24.25;nan
2875;BME280;1445;52.600;13.328;2023-07-13T10:11:09;100764.91;;;23.44;nan
2875;BME280;1445;52.600;13.328;2023-07-13T10:13:40;100758.94;;;23.49;nan
2875;BME280;1445;52.600;13.328;2023-07-13T10:16:07;100768.41;;;23.74;nan
2875;BME280;1445;52.600;13.328;2023-07-13T10:21:14;100762.00;;;23.29;nan
2875;BME280;1445;52.600;13.328;2023-07-13T10:23:40;100758.88;;;23.38;nan
2875;BME280;1445;52.600;13.328;2023-07-13T10:26:14;100756.47;;;23.44;nan
2875;BME280;1445;52.600;13.328;2023-07-13T10:28:42;100764.97;;;23.51;nan
2875;BME280;1445;52.600;13.328;2023-07-13T10:31:14;100760.63;;;23.57;nan
2875;BME280;1445;52.600;13.328;2023-07-13T10:33:40;100765.44;;;24.08;nan
2875;BME280;1445;52.600;13.328;2023-07-13T10:36:13;100772.09;;;23.82;nan
2875;BME280;1445;52.600;13.328;2023-07-13T10:38:40;100771.53;;;23.66;nan
2875;BME280;1445;52.600;13.328;2023-07-13T10:41:10;100772.44;;;23.73;nan
2875;BME280;1445;52.600;13.328;2023-07-13T10:43:43;100768.09;;;24.60;nan
2875;BME280;1445;52.600;13.328;2023-07-13T10:46:14;100774.69;;;25.10;nan
2875;BME280;1445;52.600;13.328;2023-07-13T10:48:43;100763.38;;;24.96;nan
2875;BME280;1445;52.600;13.328;2023-07-13T10:51:13;100769.41;;;24.94;nan
2875;BME280;1445;52.600;13.328;2023-07-13T10:53:40;100764.59;;;25.09;nan
2875;BME280;1445;52.600;13.328;2023-07-13T10:58:45;100782.41;;;25.35;nan
2875;BME280;1445;52.600;13.328;2023-07-13T11:01:18;100774.31;;;25.19;nan
2875;BME280;1445;52.600;13.328;2023-07-13T11:06:16;100757.81;;;25.57;nan
2875;BME280;1445;52.600;13.328;2023-07-13T11:13:57;100755.28;;;26.27;nan
2875;BME280;1445;52.600;13.328;2023-07-13T11:18:51;100750.56;;;25.59;nan
2875;BME280;1445;52.600;13.328;2023-07-13T11:21:22;100765.03;;;26.01;nan
2875;BME280;1445;52.600;13.328;2023-07-13T11:23:54;100768.94;;;26.39;nan
2875;BME280;1445;52.600;13.328;2023-07-13T11:29:33;100743.75;;;26.80;nan
2875;BME280;1445;52.600;13.328;2023-07-13T11:32:22;100755.28;;;26.23;nan
2875;BME280;1445;52.600;13.328;2023-07-13T11:34:48;100747.94;;;26.54;nan
2875;BME280;1445;52.600;13.328;2023-07-13T11:37:16;100745.50;;;26.53;nan
2875;BME280;1445;52.600;13.328;2023-07-13T11:39:44;100763.31;;;26.32;nan
2875;BME280;1445;52.600;13.328;2023-07-13T11:42:13;100743.97;;;26.27;nan
2875;BME280;1445;52.600;13.328;2023-07-13T11:44:49;100757.53;;;26.75;nan
2875;BME280;1445;52.600;13.328;2023-07-13T11:47:20;100749.38;;;26.84;nan
2875;BME280;1445;52.600;13.328;2023-07-13T11:49:52;100773.91;;;25.99;nan
2875;BME280;1445;52.600;13.328;2023-07-13T11:52:25;100750.19;;;26.81;nan
2875;BME280;1445;52.600;13.328;2023-07-13T11:54:55;100748.22;;;27.37;nan
2875;BME280;1445;52.600;13.328;2023-07-13T11:57:26;100747.34;;;27.44;nan
2875;BME280;1445;52.600;13.328;2023-07-13T11:59:54;100751.03;;;26.78;nan
2875;BME280;1445;52.600;13.328;2023-07-13T12:02:31;100753.81;;;26.85;nan
2875;BME280;1445;52.600;13.328;2023-07-13T12:04:58;100755.88;;;26.77;nan
2875;BME280;1445;52.600;13.328;2023-07-13T12:07:28;100751.59;;;26.37;nan
2875;BME280;1445;52.600;13.328;2023-07-13T12:10:00;100761.06;;;26.89;nan
2875;BME280;1445;52.600;13.328;2023-07-13T12:12:31;100764.91;;;26.44;nan
2875;BME280;1445;52.600;13.328;2023-07-13T12:14:57;100751.16;;;26.46;nan
2875;BME280;1445;52.600;13.328;2023-07-13T12:17:24;100741.09;;;26.41;nan
2875;BME280;1445;52.600;13.328;2023-07-13T12:19:51;100753.81;;;26.85;nan
2875;BME280;1445;52.600;13.328;2023-07-13T12:22:19;100748.69;;;26.65;nan
2875;BME280;1445;52.600;13.328;2023-07-13T12:24:46;100745.75;;;27.43;nan
2875;BME280;1445;52.600;13.328;2023-07-13T12:27:30;100752.53;;;28.66;nan
2875;BME280;1445;52.600;13.328;2023-07-13T12:30:02;100767.53;;;28.32;nan
2875;BME280;1445;52.600;13.328;2023-07-13T12:32:30;100748.66;;;27.80;nan
2875;BME280;1445;52.600;13.328;2023-07-13T12:35:15;100740.88;;;29.41;nan
2875;BME280;1445;52.600;13.328;2023-07-13T12:37:45;100746.00;;;28.00;nan
2875;BME280;1445;52.600;13.328;2023-07-13T12:40:19;100753.22;;;27.11;nan
2875;BME280;1445;52.600;13.328;2023-07-13T12:42:47;100760.19;;;26.05;nan
2875;BME280;1445;52.600;13.328;2023-07-13T12:47:43;100749.97;;;26.39;nan
2875;BME280;1445;52.600;13.328;2023-07-13T12:50:14;100748.00;;;27.14;nan
2875;BME280;1445;52.600;13.328;2023-07-13T12:52:43;100764.44;;;27.33;nan
2875;BME280;1445;52.600;13.328;2023-07-13T12:55:18;100743.13;;;27.18;nan
2875;BME280;1445;52.600;13.328;2023-07-13T13:00:32;100753.50;;;28.56;nan
2875;BME280;1445;52.600;13.328;2023-07-13T13:03:04;100749.75;;;28.28;nan
2875;BME280;1445;52.600;13.328;2023-07-13T13:05:32;100740.59;;;28.51;nan
2875;BME280;1445;52.600;13.328;2023-07-13T13:07:58;100737.56;;;28.65;nan
2875;BME280;1445;52.600;13.328;2023-07-13T13:10:24;100746.41;;;28.02;nan
2875;BME280;1445;52.600;13.328;2023-07-13T13:12:50;100769.00;;;27.16;nan
2875;BME280;1445;52.600;13.328;2023-07-13T13:15:15;100748.75;;;27.21;nan
2875;BME280;1445;52.600;13.328;2023-07-13T13:17:42;100762.34;;;26.74;nan
2875;BME280;1445;52.600;13.328;2023-07-13T13:20:15;100739.00;;;26.59;nan
2875;BME280;1445;52.600;13.328;2023-07-13T13:22:41;100748.88;;;27.55;nan
2875;BME280;1445;52.600;13.328;2023-07-13T13:25:10;100737.38;;;27.73;nan
2875;BME280;1445;52.600;13.328;2023-07-13T13:27:36;100740.81;;;26.95;nan
2875;BME280;1445;52.600;13.328;2023-07-13T13:30:02;100752.91;;;26.07;nan
2875;BME280;1445;52.600;13.328;2023-07-13T13:32:28;100747.19;;;26.25;nan
2875;BME280;1445;52.600;13.328;2023-07-13T13:34:53;100753.72;;;26.04;nan
2875;BME280;1445;52.600;13.328;2023-07-13T13:37:21;100749.31;;;25.96;nan
2875;BME280;1445;52.600;13.328;2023-07-13T13:39:48;100754.41;;;26.48;nan
2875;BME280;1445;52.600;13.328;2023-07-13T13:42:13;100739.59;;;27.51;nan
2875;BME280;1445;52.600;13.328;2023-07-13T13:44:39;100748.09;;;27.51;nan
2875;BME280;1445;52.600;13.328;2023-07-13T13:47:30;100756.38;;;27.76;nan
2875;BME280;1445;52.600;13.328;2023-07-13T13:49:57;100745.44;;;27.75;nan
2875;BME280;1445;52.600;13.328;2023-07-13T13:52:23;100764.38;;;27.89;nan
2875;BME280;1445;52.600;13.328;2023-07-13T13:54:49;100758.91;;;27.11;nan
2875;BME280;1445;52.600;13.328;2023-07-13T13:57:15;100747.44;;;28.53;nan
2875;BME280;1445;52.600;13.328;2023-07-13T13:59:40;100748.94;;;27.93;nan
2875;BME280;1445;52.600;13.328;2023-07-13T14:02:22;100766.19;;;26.21;nan